world map with AGF marked

AGF - Airport

This information may not be accurate or current and is not valid for navigation or flight planning. No warranty of fitness for any purpose is made or implied.

flag of Aquitaineflag of France

Donate via PayPal

Additional information is available on the NEW Great Circle Mapper

Location
City:  Agen, Aquitaine, France
Name:La Garenne
ICAO / IATA:LFBA / AGF

Details
Type:Airport (Aerodrome, Airfield)
Use:Public/Civil
Latitude:44°10'29"N (44.174714)
Longitude:0°35'26"E (0.590619)
Elevation:204 ft (62 m)
Runways:1
Longest:7103 × 98 ft (2165 × 30 m)

Time
Timezone:UTC+1 (DST+4)
Local Time:

Weather
METAR:LFBA  240400Z AUTO 34010KT 9999 OVC013 16/14 Q1026
TAF:LFBA  (expired)

Related Locations
Nearby:
Farthest:CHT: 12291 mi / 19781 km
Waitangi [Tuuta], CIT, NZ

Find:

   beyond  
but within

Other Information
Maps:
Sources:

  


 


Great Circle Mapper   Great Circle Mapper
Great Circle Mapper FAQ   Great Circle Mapper FAQ
  Karl's Home Page
KLSē   KLSē Home
   GC on Facebook
Airlines of the World   Airlines of the World
Donate via PayPal


Copyright © 2004-2018, Karl L. Swartz. All rights reserved.
All trademarks mentioned herein belong to their respective owners.

Please see credits for attribution and copyright information.

Karl Swartz <karl@kls2.com>
  Powered by FreeBSD
Valid HTML 4.01!
Labeled with ICRA
hCard Microformat
Geo Microformat